createdAt,value
2023-04-02T00:03:22.027Z,5.94
2023-04-02T00:07:33.290Z,5.80
2023-04-02T00:11:38.582Z,5.72
2023-04-02T00:15:45.755Z,5.61
2023-04-02T00:19:54.346Z,5.94
2023-04-02T00:23:59.026Z,6.21
2023-04-02T00:28:00.494Z,6.00
2023-04-02T00:32:02.207Z,6.12
2023-04-02T00:36:07.788Z,6.12
2023-04-02T00:40:19.316Z,6.32
2023-04-02T00:44:21.672Z,5.90
2023-04-02T00:48:31.905Z,5.93
2023-04-02T00:52:35.330Z,5.70
2023-04-02T00:56:42.391Z,6.34
2023-04-02T01:00:50.047Z,6.20
2023-04-02T01:04:54.116Z,6.00
2023-04-02T01:09:07.015Z,6.27
2023-04-02T01:13:31.289Z,6.36
2023-04-02T01:17:54.378Z,6.59
2023-04-02T01:22:35.098Z,6.99
2023-04-02T01:26:47.889Z,7.01
2023-04-02T01:30:53.062Z,6.49
2023-04-02T01:34:56.137Z,6.31
2023-04-02T01:39:22.470Z,6.56
2023-04-02T01:43:36.982Z,6.29
2023-04-02T01:47:38.869Z,6.08
2023-04-02T01:51:44.367Z,6.49
2023-04-02T01:55:49.851Z,6.29
2023-04-02T01:59:51.471Z,6.22
2023-04-02T02:03:54.521Z,6.80
2023-04-02T02:07:58.193Z,6.24
2023-04-02T02:12:01.688Z,6.31
2023-04-02T02:16:06.330Z,6.19
2023-04-02T02:20:12.728Z,6.44
2023-04-02T02:24:33.306Z,6.26
2023-04-02T02:28:42.339Z,6.14
2023-04-02T02:32:53.756Z,6.15
2023-04-02T02:37:02.736Z,6.65
2023-04-02T02:41:31.635Z,6.31
2023-04-02T02:45:38.682Z,6.50
2023-04-02T02:49:43.430Z,6.33
2023-04-02T02:53:58.845Z,6.50
2023-04-02T02:58:11.264Z,6.83
2023-04-02T03:02:21.889Z,6.60
2023-04-02T03:06:24.243Z,7.27
2023-04-02T03:10:57.883Z,7.08
2023-04-02T03:15:26.655Z,7.83
2023-04-02T03:19:38.296Z,7.49
2023-04-02T03:23:56.805Z,7.07
2023-04-02T03:28:03.278Z,6.55
2023-04-02T03:32:16.471Z,6.65
2023-04-02T03:36:30.753Z,6.53
2023-04-02T03:40:43.767Z,6.77
2023-04-02T03:44:54.788Z,6.27
2023-04-02T03:49:04.370Z,6.49
2023-04-02T03:53:06.372Z,6.38
2023-04-02T03:57:25.681Z,7.47
2023-04-02T04:01:35.239Z,7.31
2023-04-02T04:05:39.248Z,6.68
2023-04-02T04:09:45.251Z,7.53
2023-04-02T04:13:54.693Z,8.26
2023-04-02T04:18:19.481Z,7.94
2023-04-02T04:22:30.215Z,8.37
2023-04-02T04:26:53.351Z,7.19
2023-04-02T04:31:09.340Z,7.76
2023-04-02T04:35:26.627Z,7.50
2023-04-02T04:39:54.338Z,8.06
2023-04-02T04:44:07.800Z,7.84
2023-04-02T04:48:20.518Z,8.02
2023-04-02T04:52:29.490Z,7.75
2023-04-02T04:56:32.590Z,7.06
2023-04-02T05:01:04.101Z,7.43
2023-04-02T05:05:18.986Z,6.88
2023-04-02T05:09:36.081Z,7.37
2023-04-02T05:14:01.438Z,7.41
2023-04-02T05:18:25.860Z,7.81
2023-04-02T05:22:47.540Z,7.72
2023-04-02T05:26:51.844Z,7.76
2023-04-02T05:31:01.982Z,7.83
2023-04-02T05:35:07.302Z,7.40
2023-04-02T05:39:11.717Z,7.17
2023-04-02T05:43:26.624Z,6.98
2023-04-02T05:47:31.977Z,6.86
2023-04-02T05:51:45.590Z,7.18
2023-04-02T05:56:05.546Z,7.06
2023-04-02T06:00:32.684Z,7.87
2023-04-02T06:04:44.989Z,7.51
2023-04-02T06:08:55.639Z,7.58
2023-04-02T06:13:04.503Z,7.81
2023-04-02T06:17:18.548Z,7.89
2023-04-02T06:21:20.988Z,7.01
2023-04-02T06:25:38.517Z,8.03
2023-04-02T06:29:45.525Z,8.01
2023-04-02T06:33:52.334Z,7.25
2023-04-02T06:37:59.482Z,8.35
2023-04-02T06:42:14.002Z,7.39
2023-04-02T06:46:43.458Z,7.81
2023-04-02T06:50:51.094Z,8.07
2023-04-02T06:54:54.060Z,8.11
2023-04-02T06:58:56.782Z,7.35
2023-04-02T07:03:02.911Z,7.31
2023-04-02T07:07:05.025Z,7.65
2023-04-02T07:11:18.726Z,7.69
2023-04-02T07:15:24.623Z,7.50
2023-04-02T07:19:26.994Z,8.16
2023-04-02T07:23:31.994Z,7.63
2023-04-02T07:27:33.398Z,7.83
2023-04-02T07:31:34.922Z,7.94
2023-04-02T07:35:36.559Z,7.96
2023-04-02T07:39:40.114Z,7.94
2023-04-02T07:43:42.825Z,7.77
2023-04-02T07:47:44.511Z,7.99
2023-04-02T07:51:46.038Z,7.64
2023-04-02T07:55:52.891Z,8.49
2023-04-02T07:59:56.514Z,8.20
2023-04-02T08:03:58.009Z,8.33
2023-04-02T08:07:59.566Z,7.73
2023-04-02T08:12:01.009Z,8.12
2023-04-02T08:16:03.799Z,7.86
2023-04-02T08:20:06.578Z,7.78
2023-04-02T08:24:08.209Z,8.18
2023-04-02T08:28:09.623Z,7.94
2023-04-02T08:32:17.720Z,7.73
2023-04-02T08:36:19.308Z,7.84
2023-04-02T08:40:26.630Z,7.96
2023-04-02T08:44:49.423Z,8.49
2023-04-02T08:48:58.178Z,7.92
2023-04-02T08:53:03.186Z,8.46
2023-04-02T08:57:15.554Z,8.04
2023-04-02T09:01:27.043Z,8.44
2023-04-02T09:05:33.145Z,9.08
2023-04-02T09:09:38.116Z,8.90
2023-04-02T09:13:46.557Z,8.57
2023-04-02T09:17:54.216Z,8.24
2023-04-02T09:22:02.379Z,8.92
2023-04-02T09:26:22.267Z,10.18
2023-04-02T09:30:32.442Z,10.85
2023-04-02T09:34:36.420Z,9.75
2023-04-02T09:38:37.828Z,8.45
2023-04-02T09:42:39.267Z,8.91
2023-04-02T09:47:00.091Z,9.69
2023-04-02T09:51:13.511Z,9.79
2023-04-02T09:55:15.371Z,9.37
2023-04-02T09:59:21.603Z,10.33
2023-04-02T10:03:28.848Z,9.01
2023-04-02T10:07:43.776Z,10.33
2023-04-02T10:11:46.974Z,10.33
2023-04-02T10:16:03.210Z,10.46
2023-04-02T10:20:25.684Z,10.13
2023-04-02T10:24:28.224Z,9.52
2023-04-02T10:28:44.715Z,10.84
2023-04-02T10:33:08.864Z,9.75
2023-04-02T10:37:58.917Z,10.33
2023-04-02T10:42:18.755Z,9.27
2023-04-02T10:46:28.155Z,9.31
2023-04-02T10:50:42.316Z,9.88
2023-04-02T10:54:50.582Z,9.72
2023-04-02T10:58:58.912Z,10.48
2023-04-02T11:03:07.953Z,10.50
2023-04-02T11:07:22.471Z,10.05
2023-04-02T11:11:29.284Z,10.88
2023-04-02T11:15:31.143Z,9.74
2023-04-02T11:19:34.426Z,9.92
2023-04-02T11:23:53.162Z,9.74
2023-04-02T11:27:54.594Z,10.79
2023-04-02T11:32:25.100Z,10.05
2023-04-02T11:36:52.681Z,10.32
2023-04-02T11:40:58.366Z,10.67
2023-04-02T11:45:24.354Z,10.57
2023-04-02T11:49:40.195Z,10.76
2023-04-02T11:53:42.794Z,11.43
2023-04-02T11:57:55.618Z,10.76
2023-04-02T12:02:27.808Z,10.71
2023-04-02T12:06:47.553Z,11.23
2023-04-02T12:10:56.843Z,11.22
2023-04-02T12:15:00.004Z,10.89
2023-04-02T12:19:02.230Z,11.88
2023-04-02T12:23:04.190Z,11.44
2023-04-02T12:27:16.607Z,10.40
2023-04-02T12:31:24.985Z,10.38
2023-04-02T12:35:31.030Z,10.43
2023-04-02T12:39:34.343Z,11.17
2023-04-02T12:43:37.940Z,11.43
2023-04-02T12:47:44.947Z,11.07
2023-04-02T12:51:47.300Z,11.06
2023-04-02T12:55:51.336Z,10.90
2023-04-02T12:59:54.252Z,11.92
2023-04-02T13:04:14.915Z,10.37
2023-04-02T13:08:19.026Z,10.96
2023-04-02T13:12:38.940Z,10.92
2023-04-02T13:16:40.861Z,11.23
2023-04-02T13:20:43.445Z,11.02
2023-04-02T13:24:44.884Z,10.57
2023-04-02T13:28:57.383Z,10.91
2023-04-02T13:32:58.804Z,10.86
2023-04-02T13:37:00.418Z,10.91
2023-04-02T13:41:02.024Z,10.86
2023-04-02T13:45:04.547Z,10.11
2023-04-02T13:49:06.163Z,10.89
2023-04-02T13:53:13.220Z,10.53
2023-04-02T13:57:15.362Z,10.44
2023-04-02T14:01:18.227Z,10.02
2023-04-02T14:05:28.602Z,10.16
2023-04-02T14:10:00.774Z,10.11
2023-04-02T14:14:23.997Z,10.57
2023-04-02T14:18:43.651Z,10.23
2023-04-02T14:23:09.917Z,10.04
2023-04-02T14:27:38.473Z,9.54
2023-04-02T14:31:47.003Z,10.15
2023-04-02T14:35:58.729Z,9.98
2023-04-02T14:40:13.866Z,10.23
2023-04-02T14:44:18.715Z,10.29
2023-04-02T14:48:29.069Z,9.77
2023-04-02T14:52:33.572Z,9.55
2023-04-02T14:56:59.212Z,9.94
2023-04-02T15:01:06.044Z,9.31
2023-04-02T15:05:17.428Z,9.06
2023-04-02T15:09:27.157Z,10.43
2023-04-02T15:13:31.534Z,9.73
2023-04-02T15:17:33.040Z,9.87
2023-04-02T15:21:55.879Z,9.88
2023-04-02T15:26:18.222Z,9.71
2023-04-02T15:30:30.003Z,10.18
2023-04-02T15:35:06.710Z,9.42
2023-04-02T15:39:37.957Z,9.81
2023-04-02T15:43:44.905Z,9.90
2023-04-02T15:48:07.814Z,9.37
2023-04-02T15:52:34.161Z,9.18
2023-04-02T15:56:51.799Z,8.65
2023-04-02T16:01:02.268Z,9.75
2023-04-02T16:05:12.420Z,9.43
2023-04-02T16:09:40.694Z,9.65
2023-04-02T16:13:43.284Z,8.98
2023-04-02T16:17:47.477Z,8.32
2023-04-02T16:22:04.127Z,8.35
2023-04-02T16:26:17.390Z,9.09
2023-04-02T16:30:45.685Z,8.30
2023-04-02T16:35:39.819Z,8.46
2023-04-02T16:39:52.911Z,8.90
2023-04-02T16:44:22.778Z,9.54
2023-04-02T16:48:45.917Z,8.69
2023-04-02T16:53:13.776Z,9.13
2023-04-02T16:57:31.754Z,8.39
2023-04-02T17:01:36.424Z,8.93
2023-04-02T17:06:02.713Z,8.39
2023-04-02T17:10:26.556Z,7.73
2023-04-02T17:14:36.743Z,8.19
2023-04-02T17:18:41.636Z,7.68
2023-04-02T17:22:43.144Z,8.46
2023-04-02T17:26:52.716Z,9.20
2023-04-02T17:30:57.606Z,8.16
2023-04-02T17:35:23.728Z,8.65
2023-04-02T17:39:35.893Z,8.50
2023-04-02T17:43:59.448Z,8.86
2023-04-02T17:48:06.979Z,8.57
2023-04-02T17:52:31.285Z,8.75
2023-04-02T17:56:50.849Z,8.57
2023-04-02T18:01:12.130Z,8.24
2023-04-02T18:05:16.406Z,8.45
2023-04-02T18:09:27.743Z,8.06
2023-04-02T18:13:40.754Z,7.30
2023-04-02T18:17:59.196Z,7.81
2023-04-02T18:22:33.411Z,7.51
2023-04-02T18:27:12.866Z,7.44
2023-04-02T18:31:31.995Z,6.70
2023-04-02T18:35:48.825Z,6.69
2023-04-02T18:40:31.168Z,6.80
2023-04-02T18:44:57.381Z,7.12
2023-04-02T18:49:02.624Z,7.03
2023-04-02T18:53:15.269Z,7.06
2023-04-02T18:57:23.890Z,6.62
2023-04-02T19:01:37.312Z,7.18
2023-04-02T19:05:44.660Z,7.20
2023-04-02T19:09:49.071Z,7.02
2023-04-02T19:13:51.323Z,7.23
2023-04-02T19:18:08.368Z,7.13
2023-04-02T19:22:32.324Z,7.05
2023-04-02T19:26:46.409Z,7.06
2023-04-02T19:31:03.070Z,7.13
2023-04-02T19:35:22.843Z,7.07
2023-04-02T19:39:48.492Z,6.90
2023-04-02T19:43:50.319Z,6.76
2023-04-02T19:47:51.868Z,6.67
2023-04-02T19:51:53.597Z,6.57
2023-04-02T19:55:57.060Z,6.52
2023-04-02T19:59:58.554Z,6.67
2023-04-02T20:04:00.210Z,6.67
2023-04-02T20:08:01.630Z,6.60
2023-04-02T20:12:03.696Z,6.28
2023-04-02T20:16:06.236Z,6.19
2023-04-02T20:20:08.189Z,6.05
2023-04-02T20:24:09.655Z,5.87
2023-04-02T20:28:11.220Z,5.85
2023-04-02T20:32:12.978Z,5.79
2023-04-02T20:36:16.763Z,5.87
2023-04-02T20:40:18.311Z,5.85
2023-04-02T20:44:19.781Z,5.78
2023-04-02T20:48:22.151Z,5.78
2023-04-02T20:52:24.233Z,5.72
2023-04-02T20:56:26.470Z,5.81
2023-04-02T21:00:28.256Z,5.77
2023-04-02T21:04:29.822Z,5.73
2023-04-02T21:08:31.260Z,5.68
2023-04-02T21:12:32.757Z,5.36
2023-04-02T21:16:35.057Z,5.13
2023-04-02T21:20:36.566Z,5.18
2023-04-02T21:24:37.961Z,4.99
2023-04-02T21:28:39.430Z,4.89
2023-04-02T21:32:40.987Z,4.97
2023-04-02T21:36:45.059Z,4.95
2023-04-02T21:40:46.692Z,4.92
2023-04-02T21:44:48.198Z,4.80
2023-04-02T21:48:50.743Z,4.85
2023-04-02T21:52:53.228Z,5.02
2023-04-02T21:56:54.670Z,4.73
2023-04-02T22:00:56.408Z,5.10
2023-04-02T22:04:57.842Z,5.40
2023-04-02T22:09:02.273Z,5.19
2023-04-02T22:13:03.796Z,5.13
2023-04-02T22:17:05.437Z,5.08
2023-04-02T22:21:07.825Z,5.03
2023-04-02T22:25:09.583Z,5.08
2023-04-02T22:29:11.426Z,5.02
2023-04-02T22:33:12.885Z,4.88
2023-04-02T22:37:14.314Z,5.07
2023-04-02T22:41:25.960Z,4.99
2023-04-02T22:45:27.596Z,4.88
2023-04-02T22:49:29.003Z,4.90
2023-04-02T22:53:30.547Z,4.78
2023-04-02T22:57:32.051Z,4.93
2023-04-02T23:01:35.486Z,4.92
2023-04-02T23:05:37.468Z,4.86
2023-04-02T23:09:38.970Z,4.72
2023-04-02T23:13:41.900Z,4.76
2023-04-02T23:17:43.381Z,4.63
2023-04-02T23:21:45.119Z,4.53
2023-04-02T23:25:46.558Z,4.32
2023-04-02T23:29:49.007Z,4.20
2023-04-02T23:33:52.029Z,4.15
2023-04-02T23:37:53.557Z,4.24
2023-04-02T23:41:55.087Z,4.08
2023-04-02T23:45:56.552Z,4.11
2023-04-02T23:49:58.000Z,3.76
2023-04-02T23:53:59.563Z,3.89
2023-04-02T23:58:01.035Z,4.18
